KPVE

Details ICAO KPVE
Name BEECH RIVER RGNL
Region United States
Timezone America/Chicago (UTC-6.0)
Plans Departing 0
Arriving 1
Stats Elevation 488 ft / 149 m (AMSL)
Location 35.656363° -88.195353°
Runways 1
Magnetic Variation 2.690° W
Sunrise 2017-12-15 12:56:42 UTC / 2017-12-15 06:56:42 Local
Sunset 2017-12-15 22:42:11 UTC / 2017-12-15 16:42:11 Local
Advertisement - Login to hide

Runways

ID Width Length Bearing (true) Bearing (mag) Surface Threshold Offset Overrun Length
01 100 ft / 30 m 6,014 ft / 1,833 m 11.82° 14.51° Concrete 0 ft / 0 m 0 ft / 0 m
19 100 ft / 30 m 6,014 ft / 1,833 m 191.82° 194.51° Concrete 0 ft / 0 m 0 ft / 0 m

Map

Weather


0- 5 10 15 20 25 30 35+ Temperature / ° C

Clouds and Precipitation
Forecast for 2017-12-16 06:00 UTC. Updated 2 hours ago

Ground ~20,000 ft ~40,000 ft Winds

METAR

KPVE 160435Z AUTO 00000KT 10SM FEW043 M01/M04 A3020 RMK A01

TAF

Not found

Frequencies

Recorded 118.12 MHz AWOS 3
Unicom 123.00 MHz UNICOM
Unicom 123.00 MHz CTAF
Approach 125.85 MHz APP/DEP
Warning: Do not use this data for real-world aviation or navigation. No guarantee of current accuracy is given.